Main page
METAR-TAF:

METAR-TAF

Airports :

Winston Field Airport

Snyder, Texas, United States

latitude: 32-41-36N, longitude: 100-57-01W, elevation: 2430 ft

Current weather observation

The report was made 34 minutes ago, at 05:35 UTC
Wind 6 mph from the South
Temperature 66°F
Humidity 60%
Pressure 29.92 in. Hg
haze

METAR: KSNK 250535Z AUTO 18005KT M1/4SM HZ VV000 19/11 A2992 RMK AO2 T01860108

Time: 01:09 (06:09 UTC)


TAF: missing

Weather observations and forecasts of more than 4000 airports (METAR and TAF reports).

The available stations are represented by yellow and red dots on the map.

Hover mouse over dot to see the name of the station.

Then click to see weather observations and forecasts.

To change the map : click on the green buttons with a black cross to zoom in, on the green button with a dash to zoom out, or on the green arrows for adjacent maps.


METAR-TAF: